Time;durP1;ratioP1;P1;durP2;ratioP2;P2;SDS_P1;SDS_P2;PMS_P1;PMS_P2;Temp;Humidity;BMP_temperature;BMP_pressure;BME280_temperature;BME280_humidity;BME280_pressure;Samples;Min_cycle;Max_cycle;Signal;HPM_P1;HPM_P2
2024/03/02 00:00:11;;;;;;;;;;;;;;;-146.32;100.00;63746.28;4166445;28;19975;-67
2024/03/02 00:02:15;;;;;;;;;;;;;;;-146.32;100.00;63746.28;4165338;28;19968;-67
2024/03/02 00:04:18;;;;;;;;;;;;;;;-146.32;100.00;63746.28;4164567;28;20007;-67
2024/03/02 00:06:19;;;;;;;;;;;;;;;-146.32;100.00;63746.28;4164714;28;20466;-68
2024/03/02 00:08:23;;;;;;;;;;;;;;;-146.32;100.00;63746.28;4165765;28;20001;-68
2024/03/02 00:10:29;;;;;;;;;;;;;;;-146.32;100.00;63746.28;4165063;28;20016;-67
2024/03/02 00:12:31;;;;;;;;;;;;;;;-146.32;100.00;63746.28;4162966;28;20028;-67
2024/03/02 00:14:33;;;;;;;;;;;;;;;-146.32;100.00;63746.28;4164916;28;20429;-67
2024/03/02 00:16:36;;;;;;;;;;;;;;;-146.32;100.00;63746.28;4163877;28;20519;-67
2024/03/02 00:18:40;;;;;;;;;;;;;;;-146.32;100.00;63746.28;4164594;28;20032;-67
2024/03/02 00:20:41;;;;;;;;;;;;;;;-146.32;100.00;63746.28;4164108;28;19925;-67
2024/03/02 00:22:43;;;;;;;;;;;;;;;-146.32;100.00;63746.28;4164794;28;20323;-67
2024/03/02 00:24:45;;;;;;;;;;;;;;;-146.32;100.00;63746.28;4165139;28;20352;-68
2024/03/02 00:26:47;;;;;;;;;;;;;;;-146.32;100.00;63746.28;4164312;28;20012;-67
2024/03/02 00:28:50;;;;;;;;;;;;;;;-146.32;100.00;63746.28;4163616;28;20028;-67
2024/03/02 00:30:52;;;;;;;;;;;;;;;-146.32;100.00;63746.28;4164579;28;20020;-67
2024/03/02 00:32:54;;;;;;;;;;;;;;;-146.32;100.00;63746.28;4164576;28;20032;-67
2024/03/02 00:34:57;;;;;;;;;;;;;;;-146.32;100.00;63746.28;4163985;28;20024;-67
2024/03/02 00:36:59;;;;;;;;;;;;;;;-146.32;100.00;63746.28;4163628;28;20028;-67
2024/03/02 00:39:01;;;;;;;;;;;;;;;-146.32;100.00;63746.28;4179494;28;20015;-68
2024/03/02 00:41:06;;;;;;;;;;;;;;;-146.32;100.00;63746.28;4164141;28;20056;-67
2024/03/02 00:43:08;;;;;;;;;;;;;;;-146.32;100.00;63746.28;4163507;28;20012;-67
2024/03/02 00:45:10;;;;;;;;;;;;;;;-146.32;100.00;63746.28;4163535;28;20056;-68
2024/03/02 00:47:12;;;;;;;;;;;;;;;-146.32;100.00;63746.28;4163769;28;20021;-68
2024/03/02 00:49:19;;;;;;;;;;;;;;;-146.32;100.00;63746.28;4163863;28;20016;-68
2024/03/02 00:51:22;;;;;;;;;;;;;;;-146.32;100.00;63746.28;4163727;28;20176;-67
2024/03/02 00:53:25;;;;;;;;;;;;;;;-146.32;100.00;63746.28;4163609;28;20020;-68
2024/03/02 00:55:27;;;;;;;;;;;;;;;-146.32;100.00;63746.28;4162309;28;20020;-68
2024/03/02 00:57:29;;;;;;;;;;;;;;;-146.32;100.00;63746.28;4163914;28;20457;-68
2024/03/02 00:59:31;;;;;;;;;;;;;;;-146.32;100.00;63746.28;4164027;28;20040;-69
2024/03/02 01:01:36;;;;;;;;;;;;;;;-146.32;100.00;63746.28;4161742;28;20019;-68
2024/03/02 01:03:37;;;;;;;;;;;;;;;-146.32;100.00;63746.28;4163763;28;20471;-68
2024/03/02 01:05:42;;;;;;;;;;;;;;;-146.32;100.00;63746.28;4163692;28;20020;-69
2024/03/02 01:07:45;;;;;;;;;;;;;;;-146.32;100.00;63746.28;4164462;28;20044;-68
2024/03/02 01:09:47;;;;;;;;;;;;;;;-146.32;100.00;63746.28;4164083;28;20012;-68
2024/03/02 01:11:49;;;;;;;;;;;;;;;-146.32;100.00;63746.28;4163341;28;20021;-67
2024/03/02 01:13:51;;;;;;;;;;;;;;;-146.32;100.00;63746.28;4163282;28;20016;-67
2024/03/02 01:15:54;;;;;;;;;;;;;;;-146.32;100.00;63746.28;4163759;28;20361;-68
2024/03/02 01:17:56;;;;;;;;;;;;;;;-146.32;100.00;63746.28;4163443;28;20008;-68
2024/03/02 01:19:57;;;;;;;;;;;;;;;-146.32;100.00;63746.28;4163965;28;20013;-68
2024/03/02 01:21:59;;;;;;;;;;;;;;;-146.32;100.00;63746.28;4163629;28;19928;-68
2024/03/02 01:24:02;;;;;;;;;;;;;;;-146.32;100.00;63746.28;4164052;28;20028;-68
2024/03/02 01:26:07;;;;;;;;;;;;;;;-146.32;100.00;63746.28;4164095;28;20032;-68
2024/03/02 01:28:09;;;;;;;;;;;;;;;-146.32;100.00;63746.28;4164033;28;20024;-69
2024/03/02 01:30:11;;;;;;;;;;;;;;;-146.32;100.00;63746.28;4163566;28;20012;-69
2024/03/02 01:32:12;;;;;;;;;;;;;;;-146.32;100.00;63746.28;4163661;28;20859;-68
2024/03/02 01:34:14;;;;;;;;;;;;;;;-146.32;100.00;63746.28;4163890;28;20024;-67
2024/03/02 01:36:15;;;;;;;;;;;;;;;-146.32;100.00;63746.28;4163841;28;20473;-69
2024/03/02 01:38:17;;;;;;;;;;;;;;;-146.32;100.00;63746.28;4163525;28;19933;-68
2024/03/02 01:40:20;;;;;;;;;;;;;;;-146.32;100.00;63746.28;4163178;28;20043;-68
2024/03/02 01:42:22;;;;;;;;;;;;;;;-146.32;100.00;63746.28;4163296;28;20035;-68
2024/03/02 01:44:24;;;;;;;;;;;;;;;-146.32;100.00;63746.28;4162787;28;20442;-67
2024/03/02 01:46:26;;;;;;;;;;;;;;;-146.32;100.00;63746.28;4163001;28;20015;-69
2024/03/02 01:48:27;;;;;;;;;;;;;;;-146.32;100.00;63746.28;4163402;28;20370;-68
2024/03/02 01:50:29;;;;;;;;;;;;;;;-146.32;100.00;63746.28;4164010;28;19965;-69
2024/03/02 01:52:31;;;;;;;;;;;;;;;-146.32;100.00;63746.28;4163226;28;19965;-69
2024/03/02 01:54:34;;;;;;;;;;;;;;;-146.32;100.00;63746.28;4163363;28;20281;-68
2024/03/02 01:56:37;;;;;;;;;;;;;;;-146.32;100.00;63746.28;4162860;28;20011;-69
2024/03/02 01:58:39;;;;;;;;;;;;;;;-146.32;100.00;63746.28;4163027;28;20024;-68
2024/03/02 02:00:41;;;;;;;;;;;;;;;-146.32;100.00;63746.28;4163512;28;20028;-68
2024/03/02 02:02:43;;;;;;;;;;;;;;;-146.32;100.00;63746.28;4162881;28;20019;-68
2024/03/02 02:04:44;;;;;;;;;;;;;;;-146.32;100.00;63746.28;4162760;28;20356;-68
2024/03/02 02:06:46;;;;;;;;;;;;;;;-146.32;100.00;63746.28;4163205;28;19925;-68
2024/03/02 02:08:48;;;;;;;;;;;;;;;-146.32;100.00;63746.28;4163292;28;20016;-68
2024/03/02 02:10:50;;;;;;;;;;;;;;;-146.32;100.00;63746.28;4162626;28;20010;-69
2024/03/02 02:12:53;;;;;;;;;;;;;;;-146.32;100.00;63746.28;4162114;28;20027;-69
2024/03/02 02:14:55;;;;;;;;;;;;;;;-146.32;100.00;63746.28;4163158;28;20043;-68
2024/03/02 02:16:57;;;;;;;;;;;;;;;-146.32;100.00;63746.28;4163037;28;20429;-68
2024/03/02 02:18:59;;;;;;;;;;;;;;;-146.32;100.00;63746.28;4162604;28;20191;-68
2024/03/02 02:21:00;;;;;;;;;;;;;;;-146.32;100.00;63746.28;4161796;28;20036;-68
2024/03/02 02:23:05;;;;;;;;;;;;;;;-146.32;100.00;63746.28;4162829;28;19933;-69
2024/03/02 02:25:06;;;;;;;;;;;;;;;-146.32;100.00;63746.28;4162795;28;20445;-69
2024/03/02 02:27:08;;;;;;;;;;;;;;;-146.32;100.00;63746.28;4162854;28;20953;-68
2024/03/02 02:29:10;;;;;;;;;;;;;;;-146.32;100.00;63746.28;4161736;28;20424;-69
2024/03/02 02:31:11;;;;;;;;;;;;;;;-146.32;100.00;63746.28;4162920;28;20028;-68
2024/03/02 02:33:13;;;;;;;;;;;;;;;-146.32;100.00;63746.28;4162289;28;20020;-68
2024/03/02 02:35:16;;;;;;;;;;;;;;;-146.32;100.00;63746.28;4161863;28;20044;-69
2024/03/02 02:37:18;;;;;;;;;;;;;;;-146.32;100.00;63746.28;4161443;28;20028;-69
2024/03/02 02:39:21;;;;;;;;;;;;;;;-146.32;100.00;63746.28;4161772;28;20801;-68
2024/03/02 02:41:23;;;;;;;;;;;;;;;-146.32;100.00;63746.28;4162768;28;20024;-68
2024/03/02 02:43:25;;;;;;;;;;;;;;;-146.32;100.00;63746.28;4162863;28;20015;-68
2024/03/02 02:45:27;;;;;;;;;;;;;;;-146.32;100.00;63746.28;4162330;28;20024;-68
2024/03/02 02:47:29;;;;;;;;;;;;;;;-146.32;100.00;63746.28;4162279;28;20008;-68
2024/03/02 02:49:34;;;;;;;;;;;;;;;-146.32;100.00;63746.28;4162498;28;20032;-68
2024/03/02 02:51:36;;;;;;;;;;;;;;;-146.32;100.00;63746.28;4164727;28;20020;-68
2024/03/02 02:53:40;;;;;;;;;;;;;;;-146.32;100.00;63746.28;4165819;28;20021;-68
2024/03/02 02:55:43;;;;;;;;;;;;;;;-146.32;100.00;63746.28;4164501;28;20027;-68
2024/03/02 02:57:46;;;;;;;;;;;;;;;-146.32;100.00;63746.28;4166374;28;19990;-68
2024/03/02 02:59:48;;;;;;;;;;;;;;;-146.32;100.00;63746.28;4165510;28;20024;-68
2024/03/02 03:01:50;;;;;;;;;;;;;;;-146.32;100.00;63746.28;4164107;28;20012;-68
2024/03/02 03:03:52;;;;;;;;;;;;;;;-146.32;100.00;63746.28;4165383;28;20036;-69
2024/03/02 03:05:53;;;;;;;;;;;;;;;-146.32;100.00;63746.28;4165563;28;20590;-68
2024/03/02 03:07:55;;;;;;;;;;;;;;;-146.32;100.00;63746.28;4165308;28;19925;-68
2024/03/02 03:09:56;;;;;;;;;;;;;;;-146.32;100.00;63746.28;4165468;28;20040;-69
2024/03/02 03:12:00;;;;;;;;;;;;;;;-146.32;100.00;63746.28;4165026;28;20016;-68
2024/03/02 03:14:02;;;;;;;;;;;;;;;-146.32;100.00;63746.28;4165903;28;20557;-68
2024/03/02 03:16:05;;;;;;;;;;;;;;;-146.32;100.00;63746.28;4165186;28;20421;-67
2024/03/02 03:18:08;;;;;;;;;;;;;;;-146.32;100.00;63746.28;4165052;28;20016;-68
2024/03/02 03:20:11;;;;;;;;;;;;;;;-146.32;100.00;63746.28;4164616;28;19929;-67
2024/03/02 03:22:13;;;;;;;;;;;;;;;-146.32;100.00;63746.28;4164584;28;20036;-68
2024/03/02 03:24:15;;;;;;;;;;;;;;;-146.32;100.00;63746.28;4165769;28;20027;-68
2024/03/02 03:26:17;;;;;;;;;;;;;;;-146.32;100.00;63746.28;4165813;28;20016;-68
2024/03/02 03:28:20;;;;;;;;;;;;;;;-146.32;100.00;63746.28;4165242;28;20104;-69
2024/03/02 03:30:21;;;;;;;;;;;;;;;-146.32;100.00;63746.28;4165404;28;20450;-68
2024/03/02 03:32:23;;;;;;;;;;;;;;;-146.32;100.00;63746.28;4164613;28;20008;-69
2024/03/02 03:34:27;;;;;;;;;;;;;;;-146.32;100.00;63746.28;4164902;28;20028;-68
2024/03/02 03:36:29;;;;;;;;;;;;;;;-146.32;100.00;63746.28;4164913;28;20023;-68
2024/03/02 03:38:31;;;;;;;;;;;;;;;-146.32;100.00;63746.28;4163305;28;20442;-68
2024/03/02 03:40:33;;;;;;;;;;;;;;;-146.32;100.00;63746.28;4164603;28;20035;-68
2024/03/02 03:42:34;;;;;;;;;;;;;;;-146.32;100.00;63746.28;4164374;28;20027;-69
2024/03/02 03:44:39;;;;;;;;;;;;;;;-146.32;100.00;63746.28;4165749;28;20016;-69
2024/03/02 03:46:40;;;;;;;;;;;;;;;-146.32;100.00;63746.28;4165901;28;19957;-69
2024/03/02 03:48:42;;;;;;;;;;;;;;;-146.32;100.00;63746.28;4165410;28;19925;-68
2024/03/02 03:50:43;;;;;;;;;;;;;;;-146.32;100.00;63746.28;4165715;28;20008;-68
2024/03/02 03:52:44;;;;;;;;;;;;;;;-146.32;100.00;63746.28;4166036;28;20011;-68
2024/03/02 03:54:46;;;;;;;;;;;;;;;-146.32;100.00;63746.28;4165712;28;20386;-69
2024/03/02 03:56:47;;;;;;;;;;;;;;;-146.32;100.00;63746.28;4165760;28;20011;-69
2024/03/02 03:58:49;;;;;;;;;;;;;;;-146.32;100.00;63746.28;4165562;28;20012;-68
2024/03/02 04:00:53;;;;;;;;;;;;;;;-146.32;100.00;63746.28;4165872;28;20375;-68
2024/03/02 04:02:55;;;;;;;;;;;;;;;-146.32;100.00;63746.28;4164363;28;20032;-68
2024/03/02 04:04:57;;;;;;;;;;;;;;;-146.32;100.00;63746.28;4165233;28;20015;-68
2024/03/02 04:06:58;;;;;;;;;;;;;;;-146.32;100.00;63746.28;4165240;28;20011;-68
2024/03/02 04:09:00;;;;;;;;;;;;;;;-146.32;100.00;63746.28;4165719;28;20019;-70
2024/03/02 04:11:04;;;;;;;;;;;;;;;-146.32;100.00;63746.28;4164365;28;20478;-69
2024/03/02 04:13:07;;;;;;;;;;;;;;;-146.32;100.00;63746.28;4164862;28;20091;-69
2024/03/02 04:15:09;;;;;;;;;;;;;;;-146.32;100.00;63746.28;4164945;28;20020;-68
2024/03/02 04:17:11;;;;;;;;;;;;;;;-146.32;100.00;63746.28;4164655;28;19926;-69
2024/03/02 04:19:13;;;;;;;;;;;;;;;-146.32;100.00;63746.28;4163578;28;20009;-69
2024/03/02 04:21:15;;;;;;;;;;;;;;;-146.32;100.00;63746.28;4146778;28;20029;-69
2024/03/02 04:23:17;;;;;;;;;;;;;;;-146.32;100.00;63746.28;4165377;28;20036;-69
2024/03/02 04:25:20;;;;;;;;;;;;;;;-146.32;100.00;63746.28;4164800;28;20028;-69
2024/03/02 04:27:21;;;;;;;;;;;;;;;-146.32;100.00;63746.28;4165421;28;20023;-68
2024/03/02 04:29:23;;;;;;;;;;;;;;;-146.32;100.00;63746.28;4164390;28;20023;-68
2024/03/02 04:31:25;;;;;;;;;;;;;;;-146.32;100.00;63746.28;4165110;28;20035;-68
2024/03/02 04:33:28;;;;;;;;;;;;;;;-146.32;100.00;63746.28;4164593;28;20008;-68
2024/03/02 04:35:30;;;;;;;;;;;;;;;-146.32;100.00;63746.28;4164900;28;20016;-69
2024/03/02 04:37:32;;;;;;;;;;;;;;;-146.32;100.00;63746.28;4164313;28;20023;-69
2024/03/02 04:39:34;;;;;;;;;;;;;;;-146.32;100.00;63746.28;4164982;28;20016;-69
2024/03/02 04:41:36;;;;;;;;;;;;;;;-146.32;100.00;63746.28;4164124;28;20015;-69
2024/03/02 04:43:38;;;;;;;;;;;;;;;-146.32;100.00;63746.28;4163825;28;20465;-69
2024/03/02 04:45:39;;;;;;;;;;;;;;;-146.32;100.00;63746.28;4163297;28;20363;-68
2024/03/02 04:47:41;;;;;;;;;;;;;;;-146.32;100.00;63746.28;4164249;28;19925;-68
2024/03/02 04:49:44;;;;;;;;;;;;;;;-146.32;100.00;63746.28;4163222;28;20007;-68
2024/03/02 04:51:46;;;;;;;;;;;;;;;-146.32;100.00;63746.28;4160510;28;20024;-69
2024/03/02 04:53:48;;;;;;;;;;;;;;;-146.32;100.00;63746.28;4164324;28;20012;-68
2024/03/02 04:56:19;;;;;;;;;;;;;;;-146.32;100.00;63746.28;4164713;28;19984;-68
2024/03/02 04:58:21;;;;;;;;;;;;;;;-146.32;100.00;63746.28;4165176;28;20007;-68
2024/03/02 05:00:23;;;;;;;;;;;;;;;-146.32;100.00;63746.28;4164219;28;20007;-68
2024/03/02 05:02:25;;;;;;;;;;;;;;;-146.32;100.00;63746.28;4163973;28;20041;-68
2024/03/02 05:04:26;;;;;;;;;;;;;;;-146.32;100.00;63746.28;4164164;28;20071;-68
2024/03/02 05:06:30;;;;;;;;;;;;;;;-146.32;100.00;63746.28;4163895;28;20405;-69
2024/03/02 05:08:31;;;;;;;;;;;;;;;-146.32;100.00;63746.28;4164892;28;19983;-68
2024/03/02 05:10:33;;;;;;;;;;;;;;;-146.32;100.00;63746.28;4163886;28;20016;-68
2024/03/02 05:12:56;;;;;;;;;;;;;;;-146.32;100.00;63746.28;4163152;28;20015;-68
2024/03/02 05:14:58;;;;;;;;;;;;;;;-146.32;100.00;63746.28;4163647;28;20048;-68
2024/03/02 05:17:00;;;;;;;;;;;;;;;-146.32;100.00;63746.28;4163914;28;20024;-68
2024/03/02 05:19:01;;;;;;;;;;;;;;;-146.32;100.00;63746.28;4164097;28;20028;-68
2024/03/02 05:21:04;;;;;;;;;;;;;;;-146.32;100.00;63746.28;4163196;28;19925;-69
2024/03/02 05:23:07;;;;;;;;;;;;;;;-146.32;100.00;63746.28;4163882;28;20016;-69
2024/03/02 05:25:09;;;;;;;;;;;;;;;-146.32;100.00;63746.28;4163341;28;20032;-69
2024/03/02 05:27:11;;;;;;;;;;;;;;;-146.32;100.00;63746.28;4164308;28;20426;-69
2024/03/02 05:29:14;;;;;;;;;;;;;;;-146.32;100.00;63746.28;4164123;28;20480;-69
2024/03/02 05:31:16;;;;;;;;;;;;;;;-146.32;100.00;63746.28;4163939;28;20012;-68
2024/03/02 05:33:19;;;;;;;;;;;;;;;-146.32;100.00;63746.28;4163050;28;20016;-68
2024/03/02 05:35:21;;;;;;;;;;;;;;;-146.32;100.00;63746.28;4163484;28;20032;-69
2024/03/02 05:37:23;;;;;;;;;;;;;;;-146.32;100.00;63746.28;4164123;28;20012;-68
2024/03/02 05:39:26;;;;;;;;;;;;;;;-146.32;100.00;63746.28;4164065;28;19971;-68
2024/03/02 05:41:28;;;;;;;;;;;;;;;-146.32;100.00;63746.28;4163277;28;20012;-69
2024/03/02 05:43:29;;;;;;;;;;;;;;;-146.32;100.00;63746.28;4163326;28;20012;-68
2024/03/02 05:45:31;;;;;;;;;;;;;;;-146.32;100.00;63746.28;4163733;28;19929;-68
2024/03/02 05:47:33;;;;;;;;;;;;;;;-146.32;100.00;63746.28;4163829;28;20015;-68
2024/03/02 05:49:35;;;;;;;;;;;;;;;-146.32;100.00;63746.28;4163622;28;20001;-68
2024/03/02 05:51:37;;;;;;;;;;;;;;;-146.32;100.00;63746.28;4164212;28;20366;-68
2024/03/02 05:53:39;;;;;;;;;;;;;;;-146.32;100.00;63746.28;4163650;28;20044;-68
2024/03/02 05:55:43;;;;;;;;;;;;;;;-146.32;100.00;63746.28;4163551;28;20027;-68
2024/03/02 05:57:58;;;;;;;;;;;;;;;-146.32;100.00;63746.28;4163302;28;20104;-69
2024/03/02 06:00:00;;;;;;;;;;;;;;;-146.32;100.00;63746.28;4163425;28;20021;-68
2024/03/02 06:02:03;;;;;;;;;;;;;;;-146.32;100.00;63746.28;4162750;28;20005;-68
2024/03/02 06:04:05;;;;;;;;;;;;;;;-146.32;100.00;63746.28;4162811;28;20380;-68
2024/03/02 06:06:07;;;;;;;;;;;;;;;-146.32;100.00;63746.28;4163284;28;20351;-68
2024/03/02 06:08:09;;;;;;;;;;;;;;;-146.32;100.00;63746.28;4161278;28;20372;-68
2024/03/02 06:10:11;;;;;;;;;;;;;;;-146.32;100.00;63746.28;4163307;28;20019;-68
2024/03/02 06:12:14;;;;;;;;;;;;;;;-146.32;100.00;63746.28;4162341;28;20023;-68
2024/03/02 06:14:16;;;;;;;;;;;;;;;-146.32;100.00;63746.28;4163021;28;20012;-69
2024/03/02 06:16:17;;;;;;;;;;;;;;;-146.32;100.00;63746.28;4163321;28;20016;-68
2024/03/02 06:18:19;;;;;;;;;;;;;;;-146.32;100.00;63746.28;4163331;28;20023;-68
2024/03/02 06:20:21;;;;;;;;;;;;;;;-146.32;100.00;63746.28;4161099;28;20359;-69
2024/03/02 06:22:25;;;;;;;;;;;;;;;-146.32;100.00;63746.28;4163058;28;20376;-68
2024/03/02 06:24:27;;;;;;;;;;;;;;;-146.32;100.00;63746.28;4146013;28;20433;-68
2024/03/02 06:26:29;;;;;;;;;;;;;;;-146.32;100.00;63746.28;4165063;28;20028;-68
2024/03/02 06:28:33;;;;;;;;;;;;;;;-146.32;100.00;63746.28;4165901;28;20025;-69
2024/03/02 06:30:34;;;;;;;;;;;;;;;-146.32;100.00;63746.28;4166396;28;20004;-68
2024/03/02 06:32:36;;;;;;;;;;;;;;;-146.32;100.00;63746.28;4166384;28;20020;-68
2024/03/02 06:34:38;;;;;;;;;;;;;;;-146.32;100.00;63746.28;4165875;28;20020;-68
2024/03/02 06:36:42;;;;;;;;;;;;;;;-146.32;100.00;63746.28;4165899;28;19960;-69
2024/03/02 06:38:44;;;;;;;;;;;;;;;-146.32;100.00;63746.28;4166482;28;20049;-68
2024/03/02 06:40:46;;;;;;;;;;;;;;;-146.32;100.00;63746.28;4166445;28;20023;-68
2024/03/02 06:42:47;;;;;;;;;;;;;;;-146.32;100.00;63746.28;4166024;28;20450;-68
2024/03/02 06:44:51;;;;;;;;;;;;;;;-146.32;100.00;63746.28;4165284;28;20139;-68
2024/03/02 06:46:53;;;;;;;;;;;;;;;-146.32;100.00;63746.28;4165660;28;20011;-68
2024/03/02 06:48:57;;;;;;;;;;;;;;;-146.32;100.00;63746.28;4166425;28;20020;-68
2024/03/02 06:50:59;;;;;;;;;;;;;;;-146.32;100.00;63746.28;4165837;28;20020;-68
2024/03/02 06:53:01;;;;;;;;;;;;;;;-146.32;100.00;63746.28;4165766;28;20138;-68
2024/03/02 06:55:04;;;;;;;;;;;;;;;-146.32;100.00;63746.28;4166688;28;20028;-68
2024/03/02 06:57:05;;;;;;;;;;;;;;;-146.32;100.00;63746.28;4167034;28;20383;-68
2024/03/02 06:59:07;;;;;;;;;;;;;;;-146.32;100.00;63746.28;4167432;28;19959;-69
2024/03/02 07:01:10;;;;;;;;;;;;;;;-146.32;100.00;63746.28;4164241;28;20013;-69
2024/03/02 07:03:12;;;;;;;;;;;;;;;-146.32;100.00;63746.28;4166439;28;20012;-69
2024/03/02 07:05:14;;;;;;;;;;;;;;;-146.32;100.00;63746.28;4166108;28;20023;-68
2024/03/02 07:07:15;;;;;;;;;;;;;;;-146.32;100.00;63746.28;4164759;28;20016;-68
2024/03/02 07:09:17;;;;;;;;;;;;;;;-146.32;100.00;63746.28;4164817;28;19940;-69
2024/03/02 07:11:19;;;;;;;;;;;;;;;-146.32;100.00;63746.28;4165217;28;20012;-68
2024/03/02 07:13:21;;;;;;;;;;;;;;;-146.32;100.00;63746.28;4166062;28;19960;-68
2024/03/02 07:15:42;;;;;;;;;;;;;;;-146.32;100.00;63746.28;4165372;28;20027;-68
2024/03/02 07:17:46;;;;;;;;;;;;;;;-146.32;100.00;63746.28;4162785;28;20466;-71
2024/03/02 07:19:47;;;;;;;;;;;;;;;-146.32;100.00;63746.28;4163719;28;20023;-69
2024/03/02 07:21:49;;;;;;;;;;;;;;;-146.32;100.00;63746.28;4163274;28;20490;-70
2024/03/02 07:23:51;;;;;;;;;;;;;;;-146.32;100.00;63746.28;4164222;28;20375;-70
2024/03/02 07:25:54;;;;;;;;;;;;;;;-146.32;100.00;63746.28;4164010;28;20449;-70
2024/03/02 07:27:56;;;;;;;;;;;;;;;-146.32;100.00;63746.28;4164752;28;20032;-70
2024/03/02 07:29:59;;;;;;;;;;;;;;;-146.32;100.00;63746.28;4163880;28;20015;-70
2024/03/02 07:32:10;;;;;;;;;;;;;;;-146.32;100.00;63746.28;4163617;28;20305;-69
2024/03/02 07:34:13;;;;;;;;;;;;;;;-146.32;100.00;63746.28;4164429;28;20016;-69
2024/03/02 07:36:15;;;;;;;;;;;;;;;-146.32;100.00;63746.28;4164271;28;20012;-70
2024/03/02 07:38:17;;;;;;;;;;;;;;;-146.32;100.00;63746.28;4163417;28;20000;-69
2024/03/02 07:40:22;;;;;;;;;;;;;;;-146.32;100.00;63746.28;4162807;28;20028;-70
2024/03/02 07:42:27;;;;;;;;;;;;;;;-146.32;100.00;63746.28;4138880;28;20651;-69
2024/03/02 07:44:33;;;;;;;;;;;;;;;-146.32;100.00;63746.28;4162331;28;20363;-70
2024/03/02 07:46:35;;;;;;;;;;;;;;;-146.32;100.00;63746.28;4163563;28;20024;-70
2024/03/02 07:48:38;;;;;;;;;;;;;;;-146.32;100.00;63746.28;4178654;28;20023;-71
2024/03/02 07:50:43;;;;;;;;;;;;;;;-146.32;100.00;63746.28;4146027;28;20012;-71
2024/03/02 07:52:44;;;;;;;;;;;;;;;-146.32;100.00;63746.28;4163900;28;19968;-68
2024/03/02 07:54:46;;;;;;;;;;;;;;;-146.32;100.00;63746.28;4164879;28;19968;-70
2024/03/02 07:56:48;;;;;;;;;;;;;;;-146.32;100.00;63746.28;4163501;28;20458;-70
2024/03/02 07:58:50;;;;;;;;;;;;;;;-146.32;100.00;63746.28;4163219;28;20007;-70
2024/03/02 08:00:52;;;;;;;;;;;;;;;-146.32;100.00;63746.28;4163745;28;20023;-70
2024/03/02 08:02:53;;;;;;;;;;;;;;;-146.32;100.00;63746.28;4163742;28;20020;-70
2024/03/02 08:04:55;;;;;;;;;;;;;;;-146.32;100.00;63746.28;4164271;28;20394;-68
2024/03/02 08:06:58;;;;;;;;;;;;;;;-146.32;100.00;63746.28;4164030;28;20063;-68
2024/03/02 08:09:01;;;;;;;;;;;;;;;-146.32;100.00;63746.28;4162274;28;20023;-69
2024/03/02 08:11:03;;;;;;;;;;;;;;;-146.32;100.00;63746.28;4163605;28;20401;-69
2024/03/02 08:13:04;;;;;;;;;;;;;;;-146.32;100.00;63746.28;4146300;28;19929;-70
2024/03/02 08:15:07;;;;;;;;;;;;;;;-146.32;100.00;63746.28;4163722;28;19993;-70
2024/03/02 08:17:11;;;;;;;;;;;;;;;-146.32;100.00;63746.28;4161783;28;20515;-69
2024/03/02 08:19:13;;;;;;;;;;;;;;;-146.32;100.00;63746.28;4163404;28;20012;-70
2024/03/02 08:21:14;;;;;;;;;;;;;;;-146.32;100.00;63746.28;4161401;28;20348;-70
2024/03/02 08:23:17;;;;;;;;;;;;;;;-146.32;100.00;63746.28;4163468;28;20359;-69
2024/03/02 08:25:19;;;;;;;;;;;;;;;-146.32;100.00;63746.28;4146422;28;20012;-68
2024/03/02 08:27:21;;;;;;;;;;;;;;;-146.32;100.00;63746.28;4162799;28;19982;-69
2024/03/02 10:41:22;;;;;;;;;;;;;;;-146.32;100.00;63746.28;4137911;28;20386;-68
2024/03/02 10:43:27;;;;;;;;;;;;;;;-146.32;100.00;63746.28;4142819;28;20017;-68
2024/03/02 10:45:29;;;;;;;;;;;;;;;-146.32;100.00;63746.28;4126161;28;19929;-68
2024/03/02 10:47:32;;;;;;;;;;;;;;;-146.32;100.00;63746.28;4143794;28;20013;-68
2024/03/02 10:49:34;;;;;;;;;;;;;;;-146.32;100.00;63746.28;4141561;28;19933;-68
2024/03/02 10:51:36;;;;;;;;;;;;;;;-146.32;100.00;63746.28;4143927;28;19930;-69
2024/03/02 10:53:38;;;;;;;;;;;;;;;-146.32;100.00;63746.28;4144011;28;20378;-68
2024/03/02 10:55:40;;;;;;;;;;;;;;;-146.32;100.00;63746.28;4142937;28;20489;-67
2024/03/02 10:57:45;;;;;;;;;;;;;;;-146.32;100.00;63746.28;4142657;28;20019;-68
2024/03/02 10:59:51;;;;;;;;;;;;;;;-146.32;100.00;63746.28;4124925;28;20020;-67
2024/03/02 11:01:54;;;;;;;;;;;;;;;-146.32;100.00;63746.28;4141664;28;20016;-67
2024/03/02 11:03:59;;;;;;;;;;;;;;;-146.32;100.00;63746.28;4141974;28;19976;-70
2024/03/02 11:06:06;;;;;;;;;;;;;;;-146.32;100.00;63746.28;4143370;28;20031;-67
2024/03/02 11:08:08;;;;;;;;;;;;;;;-146.32;100.00;63746.28;4144072;28;19925;-70
2024/03/02 11:10:11;;;;;;;;;;;;;;;-146.32;100.00;63746.28;4109716;28;19936;-68
2024/03/02 11:12:14;;;;;;;;;;;;;;;-146.32;100.00;63746.28;4144676;28;19929;-68
2024/03/02 11:14:17;;;;;;;;;;;;;;;-146.32;100.00;63746.28;4146230;28;19926;-70
2024/03/02 11:16:22;;;;;;;;;;;;;;;-146.32;100.00;63746.28;4146067;28;20446;-70
2024/03/02 11:18:24;;;;;;;;;;;;;;;-146.32;100.00;63746.28;4147302;28;20036;-71
2024/03/02 11:20:26;;;;;;;;;;;;;;;-146.32;100.00;63746.28;4147587;28;20028;-71
2024/03/02 11:22:30;;;;;;;;;;;;;;;-146.32;100.00;63746.28;4147152;28;20012;-70
2024/03/02 11:24:36;;;;;;;;;;;;;;;-146.32;100.00;63746.28;4147743;28;20407;-70
2024/03/02 11:26:39;;;;;;;;;;;;;;;-146.32;100.00;63746.28;4148196;28;20024;-70
2024/03/02 11:28:41;;;;;;;;;;;;;;;-146.32;100.00;63746.28;4147743;28;20024;-67
2024/03/02 11:30:53;;;;;;;;;;;;;;;-146.32;100.00;63746.28;4145248;28;20020;-69
2024/03/02 11:33:07;;;;;;;;;;;;;;;-146.32;100.00;63746.28;4142815;28;20020;-68
2024/03/02 11:35:11;;;;;;;;;;;;;;;-146.32;100.00;63746.28;4109243;28;19966;-68
2024/03/02 11:37:13;;;;;;;;;;;;;;;-146.32;100.00;63746.28;4145592;28;20458;-68
2024/03/02 11:39:15;;;;;;;;;;;;;;;-146.32;100.00;63746.28;4145292;28;20028;-69
2024/03/02 11:41:23;;;;;;;;;;;;;;;-146.32;100.00;63746.28;4144710;28;19929;-68
2024/03/02 11:43:27;;;;;;;;;;;;;;;-146.32;100.00;63746.28;4145813;28;19972;-68
2024/03/02 11:45:31;;;;;;;;;;;;;;;-146.32;100.00;63746.28;4123676;28;20020;-68
2024/03/02 11:47:34;;;;;;;;;;;;;;;-146.32;100.00;63746.28;4145657;28;20043;-68
2024/03/02 11:49:38;;;;;;;;;;;;;;;-146.32;100.00;63746.28;4128028;28;20032;-68
2024/03/02 11:51:40;;;;;;;;;;;;;;;-146.32;100.00;63746.28;4146255;28;20020;-69
2024/03/02 11:53:42;;;;;;;;;;;;;;;-146.32;100.00;63746.28;4127724;28;20028;-67
2024/03/02 11:55:46;;;;;;;;;;;;;;;-146.32;100.00;63746.28;4146001;28;20020;-67
2024/03/02 11:57:48;;;;;;;;;;;;;;;-146.32;100.00;63746.28;4145973;28;20008;-68
2024/03/02 11:59:50;;;;;;;;;;;;;;;-146.32;100.00;63746.28;4145467;28;20451;-69
2024/03/02 12:01:55;;;;;;;;;;;;;;;-146.32;100.00;63746.28;4146217;28;20381;-69
2024/03/02 12:04:02;;;;;;;;;;;;;;;-146.32;100.00;63746.28;4146000;28;19933;-69
2024/03/02 12:06:10;;;;;;;;;;;;;;;-146.32;100.00;63746.28;4145326;28;19929;-70
2024/03/02 12:08:16;;;;;;;;;;;;;;;-146.32;100.00;63746.28;4148283;28;19997;-70
2024/03/02 12:10:24;;;;;;;;;;;;;;;-146.32;100.00;63746.28;4127414;28;19930;-71
2024/03/02 12:12:26;;;;;;;;;;;;;;;-146.32;100.00;63746.28;4144726;28;19994;-69
2024/03/02 12:14:31;;;;;;;;;;;;;;;-146.32;100.00;63746.28;4146299;28;20016;-68
2024/03/02 12:16:55;;;;;;;;;;;;;;;-146.32;100.00;63746.28;4136139;28;19940;-69
2024/03/02 12:18:57;;;;;;;;;;;;;;;-146.32;100.00;63746.28;4130093;28;19934;-69
2024/03/02 12:21:02;;;;;;;;;;;;;;;-146.32;100.00;63746.28;4142183;28;20028;-69
2024/03/02 12:23:05;;;;;;;;;;;;;;;-146.32;100.00;63746.28;4146338;28;19964;-70
2024/03/02 12:25:08;;;;;;;;;;;;;;;-146.32;100.00;63746.28;4129726;28;19929;-70
2024/03/02 12:27:10;;;;;;;;;;;;;;;-146.32;100.00;63746.28;4148164;28;20374;-69